Terminal Aerodrome Forecast
Issued by NWS Greer, SC

Home | Current Version | Previous Version | Text Only | Print | Product List | Glossary On
Versions: 1 2 3 4 5 6 7 8 9 10 11 12 13 14 15 16 17 18 19 20 21 22
000
FTUS42 KGSP 222332
TAFGSP
TAF
KGSP 222332Z 2300/2324 06007KT 2SM -DZ OVC003
     FM230100 05008KT 2SM -RADZ BR OVC002
     FM231300 05006KT 1 1/2SM -RADZ BR OVC003
     FM231500 05006KT 4SM -RADZ BR OVC002=

USA.gov is the U.S. government's official web portal to all federal, state and local government web resources and services.